Time;durP1;ratioP1;P1;durP2;ratioP2;P2;SDS_P1;SDS_P2;PMS_P1;PMS_P2;Temp;Humidity;BMP_temperature;BMP_pressure;BME280_temperature;BME280_humidity;BME280_pressure;Samples;Min_cycle;Max_cycle;Signal;HPM_P1;HPM_P2
2022/10/08 00:00:57;;;;;;;33.05;22.33;;;13.30;99.90;;;;;;5017644;28;20024;-85
2022/10/08 00:03:26;;;;;;;37.78;23.80;;;13.20;99.90;;;;;;5034937;28;20109;-83
2022/10/08 00:06:03;;;;;;;33.45;23.67;;;13.20;99.90;;;;;;5034753;28;20056;-85
2022/10/08 00:08:31;;;;;;;30.17;23.42;;;13.20;99.90;;;;;;5037142;28;20045;-83
2022/10/08 00:11:05;;;;;;;31.60;24.02;;;13.20;99.90;;;;;;5020709;28;20056;-83
2022/10/08 00:13:42;;;;;;;33.42;24.05;;;13.10;99.90;;;;;;5038163;28;20032;-81
2022/10/08 00:16:11;;;;;;;36.28;24.58;;;13.10;99.90;;;;;;5038223;28;20018;-82
2022/10/08 00:18:41;;;;;;;33.80;24.92;;;13.10;99.90;;;;;;5037060;28;20030;-83
2022/10/08 00:21:13;;;;;;;38.92;26.00;;;13.10;99.90;;;;;;5037503;28;20021;-83
2022/10/08 00:23:41;;;;;;;40.92;24.90;;;13.10;99.90;;;;;;5037715;28;20024;-83
2022/10/08 00:26:06;;;;;;;34.67;24.33;;;13.10;99.90;;;;;;5038141;28;20057;-84
2022/10/08 00:28:34;;;;;;;33.67;26.77;;;13.00;99.90;;;;;;5037196;28;20022;-84
2022/10/08 00:31:11;;;;;;;37.88;26.15;;;13.00;99.90;;;;;;5037577;28;20173;-83
2022/10/08 00:33:37;;;;;;;37.13;25.65;;;13.00;99.90;;;;;;5037715;28;20038;-83
2022/10/08 00:36:05;;;;;;;36.30;25.30;;;13.00;99.90;;;;;;5037428;28;20018;-83
2022/10/08 00:38:31;;;;;;;34.63;24.10;;;13.00;99.90;;;;;;5037454;28;20041;-83
2022/10/08 00:40:58;;;;;;;37.40;25.52;;;12.90;99.90;;;;;;5037980;28;20033;-83
2022/10/08 00:43:37;;;;;;;36.78;25.80;;;12.90;99.90;;;;;;5037220;28;20073;-82
2022/10/08 00:46:05;;;;;;;36.88;25.20;;;12.90;99.90;;;;;;5036863;28;20057;-84
2022/10/08 00:48:31;;;;;;;33.97;24.92;;;12.90;99.90;;;;;;5037297;28;20033;-82
2022/10/08 00:50:57;;;;;;;42.63;25.10;;;12.90;99.90;;;;;;5036761;28;20113;-84
2022/10/08 00:53:23;;;;;;;39.58;24.88;;;12.80;99.90;;;;;;5037577;28;20060;-82
2022/10/08 00:55:49;;;;;;;34.47;25.20;;;12.80;99.90;;;;;;5036814;28;20101;-83
2022/10/08 00:58:20;;;;;;;32.53;24.80;;;12.70;99.90;;;;;;5036627;28;20020;-83
2022/10/08 01:00:47;;;;;;;34.78;24.20;;;12.70;99.90;;;;;;5036204;28;20069;-84
2022/10/08 01:03:13;;;;;;;36.65;24.50;;;12.60;99.90;;;;;;5036788;28;20026;-84
2022/10/08 01:06:03;;;;;;;34.75;25.05;;;12.60;99.90;;;;;;5036555;28;20033;-84
2022/10/08 01:08:36;;;;;;;35.88;24.40;;;12.50;99.90;;;;;;5037242;28;20030;-83
2022/10/08 01:11:32;;;;;;;35.33;24.73;;;12.50;99.90;;;;;;5036554;28;20064;-83
2022/10/08 01:14:30;;;;;;;32.92;24.52;;;12.50;99.90;;;;;;5036248;28;20026;-83
2022/10/08 01:17:10;;;;;;;36.70;25.60;;;12.50;99.90;;;;;;5036600;28;20105;-83
2022/10/08 01:19:49;;;;;;;40.40;25.33;;;12.40;99.90;;;;;;5036698;28;20102;-84
2022/10/08 01:22:29;;;;;;;35.33;25.17;;;12.40;99.90;;;;;;5037036;28;20049;-84
2022/10/08 01:27:59;;;;;;;34.78;25.63;;;12.40;99.90;;;;;;5035516;28;20061;-84
2022/10/08 01:30:26;;;;;;;35.38;25.52;;;12.40;99.90;;;;;;5033382;28;20041;-84
2022/10/08 01:32:59;;;;;;;40.28;26.80;;;12.30;99.90;;;;;;5032054;28;20021;-85
2022/10/08 01:35:34;;;;;;;37.70;25.83;;;12.30;99.90;;;;;;5032200;28;20030;-85
2022/10/08 01:38:05;;;;;;;38.25;26.95;;;12.30;99.90;;;;;;5033677;28;20046;-86
2022/10/08 01:40:35;;;;;;;37.05;26.88;;;12.30;99.90;;;;;;5034568;28;20038;-86
2022/10/08 01:43:05;;;;;;;42.80;26.73;;;12.30;99.90;;;;;;5038132;28;20020;-84
2022/10/08 01:45:36;;;;;;;36.28;27.35;;;12.30;99.90;;;;;;5038446;28;20030;-84
2022/10/08 01:48:07;;;;;;;36.42;27.73;;;12.20;99.90;;;;;;5038868;28;20018;-84
2022/10/08 01:50:56;;;;;;;40.35;28.08;;;12.20;99.90;;;;;;5039810;28;20053;-84
2022/10/08 01:53:27;;;;;;;43.72;28.48;;;12.20;99.90;;;;;;5039716;28;20026;-85
2022/10/08 01:55:54;;;;;;;45.47;29.77;;;12.30;99.90;;;;;;5039719;28;20026;-84
2022/10/08 01:58:32;;;;;;;46.78;30.25;;;12.20;99.90;;;;;;5040181;28;20014;-83
2022/10/08 02:01:05;;;;;;;50.78;33.50;;;12.20;99.90;;;;;;5040576;28;20044;-82
2022/10/08 02:03:31;;;;;;;58.45;37.33;;;12.20;99.90;;;;;;5023484;28;20061;-83
2022/10/08 02:06:01;;;;;;;66.80;37.63;;;12.30;99.90;;;;;;5040178;28;20026;-83
2022/10/08 02:08:27;;;;;;;60.85;38.35;;;12.20;99.90;;;;;;5039273;28;20097;-84
2022/10/08 02:10:52;;;;;;;68.82;40.53;;;12.20;99.90;;;;;;5040355;28;20066;-83
2022/10/08 02:13:19;;;;;;;76.03;41.42;;;12.20;99.90;;;;;;5039878;28;20028;-82
2022/10/08 02:15:54;;;;;;;70.05;43.05;;;12.20;99.90;;;;;;5040212;28;20042;-83
2022/10/08 02:18:32;;;;;;;92.53;48.25;;;12.20;99.90;;;;;;5039822;28;20018;-84
2022/10/08 02:21:05;;;;;;;93.22;50.17;;;12.10;99.90;;;;;;5038716;28;20046;-82
2022/10/08 02:23:39;;;;;;;109.05;53.42;;;12.10;99.90;;;;;;5039686;28;20032;-83
2022/10/08 02:26:11;;;;;;;112.97;56.08;;;12.20;99.90;;;;;;5039158;28;20026;-84
2022/10/08 02:29:10;;;;;;;111.10;56.20;;;12.20;99.90;;;;;;5039674;28;20033;-82
2022/10/08 02:31:44;;;;;;;108.35;55.88;;;12.10;99.90;;;;;;5034254;28;20056;-84
2022/10/08 02:34:46;;;;;;;103.43;53.63;;;12.10;99.90;;;;;;5038193;28;20018;-84
2022/10/08 02:37:19;;;;;;;105.32;55.25;;;12.10;99.90;;;;;;5014016;28;20050;-86
2022/10/08 02:40:07;;;;;;;104.90;53.03;;;12.00;99.90;;;;;;5034064;28;20152;-86
2022/10/08 02:42:35;;;;;;;102.72;52.10;;;12.00;99.90;;;;;;5035413;28;20049;-84
2022/10/08 02:45:09;;;;;;;89.70;51.10;;;12.00;99.90;;;;;;5036274;28;20034;-85
2022/10/08 02:47:40;;;;;;;93.95;49.05;;;12.00;99.90;;;;;;5038047;28;20064;-84
2022/10/08 02:50:11;;;;;;;102.45;49.03;;;12.00;99.90;;;;;;5037308;28;20030;-84
2022/10/08 02:52:40;;;;;;;78.90;45.63;;;12.00;99.90;;;;;;5036557;28;20038;-87
2022/10/08 02:55:40;;;;;;;78.32;45.88;;;12.00;99.90;;;;;;5018320;28;20026;-84
2022/10/08 02:58:09;;;;;;;77.32;44.70;;;12.00;99.90;;;;;;5031254;28;20034;-85
2022/10/08 03:00:41;;;;;;;76.30;45.22;;;12.10;99.90;;;;;;5032374;28;20018;-86
2022/10/08 03:03:12;;;;;;;74.50;44.65;;;12.00;99.90;;;;;;5027464;28;20144;-86
2022/10/08 03:05:40;;;;;;;86.60;45.58;;;12.10;99.90;;;;;;5023924;28;20477;-84
2022/10/08 03:08:09;;;;;;;76.60;45.38;;;12.10;99.90;;;;;;5023807;28;20093;-84
2022/10/08 03:10:38;;;;;;;79.05;47.08;;;12.10;99.90;;;;;;5024739;28;20038;-87
2022/10/08 03:13:05;;;;;;;77.22;44.60;;;12.10;99.90;;;;;;5026544;28;20077;-87
2022/10/08 03:15:32;;;;;;;81.28;47.00;;;12.10;99.90;;;;;;5030172;28;20044;-85
2022/10/08 03:18:01;;;;;;;91.40;48.88;;;12.10;99.90;;;;;;5038604;28;20010;-83
2022/10/08 03:20:29;;;;;;;92.47;48.72;;;12.00;99.90;;;;;;5038579;28;20037;-83
2022/10/08 03:22:59;;;;;;;98.03;50.97;;;12.10;99.90;;;;;;5037447;28;20014;-86
2022/10/08 03:25:24;;;;;;;101.15;51.85;;;12.10;99.90;;;;;;5030214;28;20033;-85
2022/10/08 03:27:51;;;;;;;101.03;53.42;;;12.20;99.90;;;;;;5034198;28;20026;-84
2022/10/08 03:30:17;;;;;;;103.82;54.17;;;12.20;99.90;;;;;;5038442;28;20098;-85
2022/10/08 03:32:42;;;;;;;108.93;53.35;;;12.10;99.90;;;;;;5018251;28;20030;-83
2022/10/08 03:35:08;;;;;;;108.32;53.88;;;12.10;99.90;;;;;;5018627;28;20045;-84
2022/10/08 03:37:34;;;;;;;104.30;54.67;;;12.10;99.90;;;;;;5018819;28;20070;-85
2022/10/08 03:40:00;;;;;;;99.63;51.85;;;12.10;99.90;;;;;;5018298;28;20022;-83
2022/10/08 03:42:25;;;;;;;110.72;55.90;;;12.10;99.90;;;;;;5018129;28;20015;-84
2022/10/08 03:44:52;;;;;;;107.63;54.30;;;12.10;99.90;;;;;;5017869;28;20064;-85
2022/10/08 03:47:18;;;;;;;109.32;53.47;;;12.10;99.90;;;;;;5007218;28;20042;-86
2022/10/08 03:49:44;;;;;;;114.05;57.30;;;12.10;99.90;;;;;;5010896;28;20074;-84
2022/10/08 03:52:09;;;;;;;105.65;53.78;;;12.10;99.90;;;;;;5000787;28;20034;-85
2022/10/08 03:54:36;;;;;;;106.88;55.67;;;12.10;99.90;;;;;;5018372;28;20014;-86
2022/10/08 03:57:02;;;;;;;117.07;57.85;;;12.10;99.90;;;;;;5015663;28;20029;-88
2022/10/08 03:59:28;;;;;;;111.47;54.03;;;12.20;99.90;;;;;;5008723;28;20038;-87
2022/10/08 04:01:54;;;;;;;108.97;53.67;;;12.20;99.90;;;;;;5028653;28;20101;-85
2022/10/08 04:04:20;;;;;;;96.57;51.13;;;12.30;99.90;;;;;;5046764;28;20029;-88
2022/10/08 04:06:45;;;;;;;106.60;53.33;;;12.30;99.90;;;;;;5032185;28;20033;-86
2022/10/08 04:09:11;;;;;;;103.50;52.45;;;12.40;99.90;;;;;;5036982;28;20040;-84
2022/10/08 04:11:37;;;;;;;98.15;51.78;;;12.40;99.90;;;;;;5020444;28;20052;-85
2022/10/08 04:14:03;;;;;;;100.07;50.33;;;12.40;99.90;;;;;;5037769;28;20077;-85
2022/10/08 04:16:29;;;;;;;95.53;50.35;;;12.50;99.90;;;;;;5037147;28;20033;-85
2022/10/08 04:18:55;;;;;;;90.50;47.50;;;12.50;99.90;;;;;;5037545;28;20018;-85
2022/10/08 04:21:21;;;;;;;85.55;44.00;;;12.60;99.90;;;;;;5037550;28;20038;-86
2022/10/08 04:23:48;;;;;;;79.75;40.33;;;12.70;99.90;;;;;;5037411;28;20018;-87
2022/10/08 04:26:15;;;;;;;72.13;40.03;;;12.80;99.90;;;;;;5036976;28;20020;-87
2022/10/08 04:28:43;;;;;;;72.25;39.20;;;12.80;99.90;;;;;;5033135;28;20026;-87
2022/10/08 04:31:13;;;;;;;69.07;37.63;;;13.00;99.90;;;;;;5030446;28;20081;-89
2022/10/08 04:33:39;;;;;;;67.32;37.33;;;13.00;99.90;;;;;;5031013;28;20033;-87
2022/10/08 04:36:10;;;;;;;65.03;34.97;;;13.00;99.90;;;;;;5025057;28;20019;-86
2022/10/08 04:38:36;;;;;;;64.18;35.55;;;13.00;99.90;;;;;;5019508;28;20089;-87
2022/10/08 04:41:10;;;;;;;66.47;35.67;;;13.10;99.90;;;;;;5036369;28;20025;-88
2022/10/08 04:43:37;;;;;;;64.40;34.78;;;13.00;99.90;;;;;;5035749;28;20038;-86
2022/10/08 04:46:06;;;;;;;66.78;35.45;;;13.10;99.90;;;;;;5034886;28;20033;-85
2022/10/08 04:48:32;;;;;;;65.78;35.58;;;13.00;99.90;;;;;;5035099;28;20074;-84
2022/10/08 04:50:59;;;;;;;64.57;37.85;;;13.10;99.90;;;;;;5035005;28;20064;-84
2022/10/08 04:53:25;;;;;;;68.07;36.47;;;13.00;99.90;;;;;;5036185;28;20072;-85
2022/10/08 04:55:53;;;;;;;60.30;35.30;;;13.00;99.90;;;;;;5036351;28;20021;-84
2022/10/08 04:58:20;;;;;;;62.38;34.35;;;13.10;99.90;;;;;;5036114;28;20018;-85
2022/10/08 05:00:45;;;;;;;57.63;33.88;;;13.00;99.90;;;;;;5017610;28;20510;-89
2022/10/08 05:03:11;;;;;;;64.80;36.10;;;13.10;99.90;;;;;;5032876;28;20034;-86
2022/10/08 05:05:41;;;;;;;57.75;34.65;;;13.10;99.90;;;;;;5054744;22;20025;-77
2022/10/08 05:08:08;;;;;;;60.65;35.85;;;13.10;99.90;;;;;;4994238;28;20034;-78
2022/10/08 05:10:34;;;;;;;64.45;36.75;;;13.10;99.90;;;;;;4996180;28;20026;-78
2022/10/08 05:13:00;;;;;;;66.40;37.22;;;13.10;99.90;;;;;;4995971;28;20026;-79
2022/10/08 05:15:26;;;;;;;65.47;37.03;;;13.10;99.90;;;;;;4997924;28;20018;-78
2022/10/08 05:17:52;;;;;;;67.35;38.83;;;13.10;99.90;;;;;;5005497;28;20034;-77
2022/10/08 05:20:18;;;;;;;75.00;40.72;;;13.10;99.90;;;;;;5000853;28;20025;-80
2022/10/08 05:22:43;;;;;;;73.13;42.55;;;13.00;99.90;;;;;;4998553;28;20057;-80
2022/10/08 05:25:09;;;;;;;79.18;41.85;;;13.00;99.90;;;;;;4998867;28;20026;-79
2022/10/08 05:27:35;;;;;;;84.00;42.92;;;13.00;99.90;;;;;;5000808;28;20038;-79
2022/10/08 05:30:02;;;;;;;78.47;42.13;;;13.00;99.90;;;;;;4982584;28;20026;-79
2022/10/08 05:32:27;;;;;;;71.65;41.72;;;13.10;99.90;;;;;;5002465;28;20094;-79
2022/10/08 05:34:53;;;;;;;83.68;43.30;;;13.10;99.90;;;;;;5005069;28;20030;-78
2022/10/08 05:37:19;;;;;;;73.82;41.35;;;13.10;99.90;;;;;;5007146;28;20053;-77
2022/10/08 05:39:46;;;;;;;75.90;41.17;;;13.20;99.90;;;;;;5006929;28;20034;-77
2022/10/08 05:42:12;;;;;;;74.85;40.70;;;13.20;99.90;;;;;;5008675;28;20057;-79
2022/10/08 05:44:37;;;;;;;71.80;39.50;;;13.20;99.90;;;;;;5003559;28;20522;-77
2022/10/08 05:47:03;;;;;;;64.68;37.08;;;13.30;99.90;;;;;;5007100;28;20086;-79
2022/10/08 05:49:29;;;;;;;57.13;33.42;;;13.30;99.90;;;;;;5002280;28;20026;-79
2022/10/08 05:51:55;;;;;;;69.15;33.55;;;13.40;99.90;;;;;;4999433;28;20079;-80
2022/10/08 05:54:21;;;;;;;62.25;33.58;;;13.50;99.90;;;;;;4999009;28;20495;-79
2022/10/08 05:56:46;;;;;;;58.78;35.25;;;13.50;99.90;;;;;;5002951;28;20049;-79
2022/10/08 05:59:19;;;;;;;56.33;34.55;;;13.50;99.90;;;;;;5003844;28;20033;-79
2022/10/08 06:01:45;;;;;;;54.30;33.88;;;13.60;99.90;;;;;;5004288;28;20044;-79
2022/10/08 06:04:11;;;;;;;55.90;34.15;;;13.60;99.90;;;;;;5005221;28;20022;-78
2022/10/08 06:06:39;;;;;;;59.05;34.35;;;13.60;99.90;;;;;;5006624;28;20045;-78
2022/10/08 06:09:06;;;;;;;53.17;33.58;;;13.50;99.90;;;;;;5005662;28;20050;-78
2022/10/08 06:11:33;;;;;;;49.03;31.35;;;13.60;99.90;;;;;;5005444;28;20038;-80
2022/10/08 06:14:00;;;;;;;68.00;33.95;;;13.60;99.90;;;;;;5003100;28;20034;-80
2022/10/08 06:16:28;;;;;;;52.00;32.90;;;13.70;99.90;;;;;;5000735;28;20057;-79
2022/10/08 06:18:54;;;;;;;58.95;33.35;;;13.70;99.90;;;;;;4998693;28;20396;-79
2022/10/08 06:21:23;;;;;;;53.15;32.42;;;13.70;99.90;;;;;;4998888;28;20037;-79
2022/10/08 06:23:57;;;;;;;52.47;32.75;;;13.70;99.90;;;;;;5005037;28;20446;-79
2022/10/08 06:26:26;;;;;;;56.97;33.30;;;13.70;99.90;;;;;;5004133;28;20168;-78
2022/10/08 06:28:52;;;;;;;52.85;32.15;;;13.70;99.90;;;;;;5003058;28;20089;-80
2022/10/08 06:31:18;;;;;;;49.70;32.72;;;13.70;99.90;;;;;;5003981;28;20430;-79
2022/10/08 06:33:44;;;;;;;54.28;33.42;;;13.80;99.90;;;;;;5018366;28;20065;-78
2022/10/08 06:36:19;;;;;;;48.97;31.95;;;13.80;99.90;;;;;;5018867;28;20042;-79
2022/10/08 06:38:49;;;;;;;49.58;32.15;;;13.90;99.90;;;;;;5004400;28;20038;-80
2022/10/08 06:41:14;;;;;;;49.42;31.80;;;13.90;99.90;;;;;;4999495;28;20073;-81
2022/10/08 06:43:40;;;;;;;49.10;31.02;;;14.00;99.90;;;;;;5000344;28;20018;-80
2022/10/08 06:46:06;;;;;;;58.70;32.58;;;14.00;99.90;;;;;;5003675;28;20022;-80
2022/10/08 06:48:33;;;;;;;52.03;32.03;;;14.00;99.90;;;;;;5004565;28;20030;-80
2022/10/08 06:51:04;;;;;;;52.35;33.25;;;14.10;99.90;;;;;;5011791;28;20678;-79
2022/10/08 06:53:30;;;;;;;52.35;32.28;;;14.10;99.90;;;;;;5009949;28;20030;-78
2022/10/08 06:56:02;;;;;;;51.72;33.22;;;14.10;99.90;;;;;;5006455;28;20100;-79
2022/10/08 06:58:28;;;;;;;51.13;31.73;;;14.10;99.90;;;;;;5003246;28;20038;-80
2022/10/08 07:01:18;;;;;;;50.60;32.42;;;14.10;99.90;;;;;;5002341;28;20129;-80
2022/10/08 07:03:52;;;;;;;50.17;31.17;;;14.20;99.90;;;;;;5004961;28;20026;-80
2022/10/08 07:06:17;;;;;;;47.78;30.48;;;14.20;99.90;;;;;;5004496;28;20398;-81
2022/10/08 07:08:43;;;;;;;45.10;30.10;;;14.30;99.90;;;;;;5003921;28;20101;-80
2022/10/08 07:11:17;;;;;;;49.65;31.50;;;14.20;99.90;;;;;;5007305;28;20035;-79
2022/10/08 07:13:44;;;;;;;53.60;29.80;;;14.30;99.90;;;;;;5008915;28;20105;-79
2022/10/08 07:16:18;;;;;;;49.45;30.95;;;14.30;99.90;;;;;;5003691;28;20030;-79
2022/10/08 07:18:45;;;;;;;49.45;30.60;;;14.40;99.90;;;;;;5001647;28;20503;-80
2022/10/08 07:21:13;;;;;;;51.65;30.88;;;14.30;99.90;;;;;;4999449;28;20245;-80
2022/10/08 07:23:39;;;;;;;52.67;32.30;;;14.40;99.90;;;;;;4997787;28;20030;-81
2022/10/08 07:26:20;;;;;;;58.33;33.63;;;14.40;99.90;;;;;;4999436;28;20029;-79
2022/10/08 07:28:55;;;;;;;59.38;33.50;;;14.40;99.90;;;;;;5007378;28;20030;-80
2022/10/08 07:31:22;;;;;;;;;;;14.50;99.90;;;;;;5008148;28;20041;-80
2022/10/08 07:33:49;;;;;;;56.55;33.45;;;14.50;99.90;;;;;;5009601;28;19906;-78
2022/10/08 07:36:18;;;;;;;67.43;34.60;;;14.60;99.90;;;;;;5006150;28;20037;-81
2022/10/08 07:38:44;;;;;;;51.17;33.20;;;14.70;99.90;;;;;;5008614;28;20032;-80
2022/10/08 07:41:11;;;;;;;57.95;33.25;;;14.80;99.90;;;;;;5006928;28;20102;-80
2022/10/08 07:43:41;;;;;;;59.03;34.45;;;14.80;99.90;;;;;;5007600;28;20090;-81
2022/10/08 07:46:09;;;;;;;59.63;33.72;;;14.80;99.90;;;;;;5006049;28;20031;-78
2022/10/08 07:48:36;;;;;;;58.13;32.50;;;14.80;99.90;;;;;;5002213;28;20026;-81
2022/10/08 07:51:10;;;;;;;63.83;32.97;;;14.80;99.90;;;;;;5005181;28;20038;-80
2022/10/08 07:53:36;;;;;;;54.50;31.17;;;14.80;99.90;;;;;;4999383;28;20062;-80
2022/10/08 07:56:02;;;;;;;62.95;33.47;;;14.80;99.90;;;;;;4998358;28;20030;-80
2022/10/08 07:58:28;;;;;;;68.85;34.28;;;14.80;99.90;;;;;;4998182;28;20026;-80
2022/10/08 08:00:58;;;;;;;59.25;33.97;;;14.90;99.90;;;;;;4996073;28;20376;-81
2022/10/08 08:03:24;;;;;;;62.65;33.28;;;15.00;99.90;;;;;;4995802;28;20065;-81
2022/10/08 08:05:50;;;;;;;58.60;32.53;;;15.00;99.90;;;;;;4995693;28;20026;-80
2022/10/08 08:08:16;;;;;;;65.80;33.78;;;15.10;99.90;;;;;;4997070;28;20121;-80
2022/10/08 08:10:42;;;;;;;58.17;31.00;;;15.30;99.90;;;;;;4997805;28;20701;-79
2022/10/08 08:13:08;;;;;;;55.35;29.42;;;15.60;99.90;;;;;;5001961;28;20038;-79
2022/10/08 08:15:33;;;;;;;49.50;28.65;;;15.90;99.90;;;;;;5009779;28;20026;-79
2022/10/08 08:17:59;;;;;;;50.22;27.77;;;16.10;99.90;;;;;;5004763;28;20038;-80
2022/10/08 08:20:25;;;;;;;48.95;27.65;;;16.40;99.90;;;;;;4999419;28;20030;-79
2022/10/08 08:22:50;;;;;;;50.78;25.60;;;16.40;99.90;;;;;;4998087;28;20027;-79
2022/10/08 08:25:17;;;;;;;48.40;26.58;;;16.70;99.90;;;;;;4999990;28;20045;-79
2022/10/08 08:27:43;;;;;;;51.97;25.70;;;16.90;99.90;;;;;;4998314;28;20094;-79
2022/10/08 08:30:09;;;;;;;47.30;26.52;;;17.00;99.90;;;;;;4999735;28;20050;-79
2022/10/08 08:32:35;;;;;;;46.33;24.73;;;17.10;99.90;;;;;;4998676;28;20034;-79
2022/10/08 08:35:01;;;;;;;44.10;22.75;;;17.20;99.90;;;;;;5002638;28;20053;-79
2022/10/08 08:37:27;;;;;;;41.55;23.35;;;17.50;99.90;;;;;;5001916;28;20082;-81
2022/10/08 08:39:52;;;;;;;43.13;22.52;;;17.80;99.90;;;;;;5003031;28;20037;-79
2022/10/08 08:42:49;;;;;;;45.55;23.80;;;18.10;99.90;;;;;;5003407;28;20087;-79
2022/10/08 08:45:17;;;;;;;46.08;23.88;;;18.20;99.90;;;;;;5000188;28;20627;-79
2022/10/08 08:47:53;;;;;;;46.47;23.98;;;18.10;99.90;;;;;;4996277;28;20019;-81
2022/10/08 08:50:35;;;;;;;42.22;24.15;;;18.10;99.90;;;;;;4999831;28;20033;-81
2022/10/08 08:53:02;;;;;;;44.05;25.13;;;17.90;99.90;;;;;;5001070;28;20054;-79
2022/10/08 08:55:37;;;;;;;45.47;26.17;;;17.60;99.90;;;;;;4998251;28;20433;-81
2022/10/08 08:58:21;;;;;;;51.15;25.85;;;17.30;99.90;;;;;;4998794;28;20053;-81
2022/10/08 09:01:11;;;;;;;51.03;24.70;;;17.40;99.90;;;;;;5003209;28;20050;-80
2022/10/08 09:03:46;;;;;;;47.17;25.45;;;17.40;99.90;;;;;;5001773;28;20098;-80
2022/10/08 09:06:13;;;;;;;;;;;17.60;99.90;;;;;;5001781;28;20065;-79
2022/10/08 09:08:52;;;;;;;44.83;23.98;;;17.80;99.90;;;;;;5000751;28;19960;-82
2022/10/08 09:11:20;;;;;;;38.60;21.85;;;18.10;99.90;;;;;;5002703;28;20030;-79
2022/10/08 09:13:58;;;;;;;41.50;22.70;;;18.40;99.90;;;;;;4998424;28;20053;-80
2022/10/08 09:16:26;;;;;;;46.85;22.70;;;19.10;99.90;;;;;;4998219;28;20045;-80
2022/10/08 09:18:52;;;;;;;35.00;20.65;;;20.40;99.90;;;;;;4997814;28;20370;-80
2022/10/08 09:21:19;;;;;;;35.78;19.23;;;21.70;99.90;;;;;;4981368;28;20034;-80
2022/10/08 09:23:46;;;;;;;38.58;19.27;;;23.00;99.90;;;;;;4996777;28;20116;-79
2022/10/08 09:26:30;;;;;;;36.88;17.92;;;24.70;99.90;;;;;;4999892;28;20057;-80
2022/10/08 09:28:58;;;;;;;33.40;18.35;;;26.40;99.90;;;;;;5001672;28;20026;-80
2022/10/08 09:31:37;;;;;;;34.35;19.15;;;26.70;99.80;;;;;;4995773;28;20382;-80
2022/10/08 09:34:09;;;;;;;32.20;19.90;;;26.70;98.70;;;;;;4997765;28;20045;-80
2022/10/08 09:36:47;;;;;;;35.97;18.65;;;26.40;98.80;;;;;;4999659;28;20026;-80
2022/10/08 09:39:17;;;;;;;29.25;18.23;;;26.00;99.30;;;;;;5003862;28;20089;-80
2022/10/08 09:41:44;;;;;;;27.60;17.15;;;26.30;98.70;;;;;;5002847;28;20086;-82
2022/10/08 09:44:18;;;;;;;25.23;17.20;;;26.70;98.10;;;;;;5005459;28;20057;-79
2022/10/08 09:46:44;;;;;;;28.02;17.48;;;27.50;96.90;;;;;;5005985;28;20081;-79
2022/10/08 09:49:25;;;;;;;26.00;16.23;;;27.40;96.10;;;;;;5005052;28;20031;-79
2022/10/08 09:51:52;;;;;;;26.30;16.20;;;27.40;96.00;;;;;;5006135;28;20038;-80
2022/10/08 09:54:26;;;;;;;28.98;16.05;;;28.50;95.40;;;;;;5007265;28;20042;-79
2022/10/08 09:56:55;;;;;;;28.92;16.52;;;29.70;93.40;;;;;;5005689;28;20041;-80
2022/10/08 09:59:25;;;;;;;24.45;14.52;;;30.40;91.80;;;;;;5004489;28;20126;-82
2022/10/08 10:01:52;;;;;;;21.95;14.30;;;29.80;91.30;;;;;;5003132;28;20052;-80
2022/10/08 10:04:34;;;;;;;23.83;13.55;;;30.50;90.50;;;;;;5008530;28;20081;-79
2022/10/08 10:07:00;;;;;;;19.80;13.05;;;31.80;88.00;;;;;;5008284;28;20033;-78
2022/10/08 10:09:36;;;;;;;28.92;14.68;;;33.10;84.40;;;;;;5003571;28;20057;-81
2022/10/08 10:12:23;;;;;;;22.88;13.95;;;32.20;82.30;;;;;;5003994;28;20061;-82
2022/10/08 10:15:09;;;;;;;20.70;13.55;;;32.00;82.60;;;;;;5001980;28;20035;-81
2022/10/08 10:17:42;;;;;;;19.13;13.05;;;31.70;82.00;;;;;;4998127;28;20438;-80
2022/10/08 10:20:26;;;;;;;20.77;14.25;;;30.30;83.60;;;;;;4998416;28;20088;-81
2022/10/08 10:23:18;;;;;;;21.00;14.65;;;28.80;86.50;;;;;;4999166;28;20035;-79
2022/10/08 10:25:49;;;;;;;27.70;16.30;;;27.90;88.70;;;;;;5003688;28;20065;-80
2022/10/08 10:28:23;;;;;;;22.55;15.25;;;27.50;90.00;;;;;;5010058;28;20045;-81
2022/10/08 10:31:22;;;;;;;25.67;14.70;;;27.90;90.20;;;;;;5000628;28;20031;-81
2022/10/08 10:33:59;;;;;;;23.63;14.02;;;29.00;88.60;;;;;;4997784;28;20046;-80
2022/10/08 10:36:29;;;;;;;26.33;13.57;;;30.50;85.20;;;;;;5003139;28;20034;-82
2022/10/08 10:39:42;;;;;;;22.63;13.90;;;31.60;82.90;;;;;;5014925;28;20101;-80
2022/10/08 10:42:27;;;;;;;20.65;14.02;;;32.60;80.70;;;;;;5015522;28;20392;-83
2022/10/08 10:44:54;;;;;;;;;;;32.70;79.40;;;;;;5002501;28;20065;-81
2022/10/08 10:47:22;;;;;;;;;;;33.40;78.00;;;;;;4999406;28;19996;-82
2022/10/08 10:49:49;;;;;;;;;;;33.20;76.90;;;;;;4997419;28;20075;-81
2022/10/08 10:52:34;;;;;;;;;;;32.50;77.00;;;;;;4981205;28;19929;-81
2022/10/08 10:55:05;;;;;;;;;;;31.60;78.00;;;;;;4998418;28;19937;-80
2022/10/08 10:57:33;;;;;;;;;;;31.90;78.10;;;;;;4997208;28;19909;-81
2022/10/08 11:00:08;;;;;;;;;;;32.40;77.20;;;;;;4999883;28;19909;-81
2022/10/08 11:02:41;;;;;;;;;;;33.10;76.00;;;;;;4998772;28;20004;-81
2022/10/08 11:05:21;;;;;;;;;;;32.90;75.90;;;;;;5000994;28;19910;-80
2022/10/08 11:07:47;;;;;;;;;;;32.90;75.40;;;;;;5063903;23;19929;-89
2022/10/08 11:10:27;;;;;;;;;;;33.10;74.70;;;;;;5030747;28;19905;-87
2022/10/08 11:13:11;;;;;;;;;;;33.10;74.60;;;;;;5028697;28;19917;-88
2022/10/08 11:15:39;;;;;;;;;;;33.20;74.40;;;;;;5032988;28;19920;-90
2022/10/08 11:18:15;;;;;;;;;;;33.40;73.90;;;;;;5030292;28;19913;-89
2022/10/08 11:20:47;;;;;;;;;;;33.00;73.50;;;;;;5028485;28;20648;-89
2022/10/08 11:23:30;;;;;;;;;;;33.20;73.90;;;;;;5028700;28;19905;-88
2022/10/08 11:26:11;;;;;;;;;;;33.80;73.10;;;;;;5030001;28;19920;-89
2022/10/08 11:28:49;;;;;;;;;;;34.80;71.60;;;;;;5032803;28;19894;-90
2022/10/08 11:31:26;;;;;;;;;;;35.10;70.50;;;;;;5034535;28;19916;-85
2022/10/08 11:33:53;;;;;;;;;;;34.80;71.00;;;;;;5038373;28;19914;-86
2022/10/08 11:36:22;;;;;;;;;;;35.30;69.50;;;;;;5038355;28;19893;-87
2022/10/08 11:38:51;;;;;;;;;;;35.60;68.60;;;;;;5037778;28;19968;-84
2022/10/08 11:41:16;;;;;;;;;;;35.40;67.90;;;;;;5036228;28;19933;-87
2022/10/08 11:43:45;;;;;;;;;;;34.30;68.60;;;;;;5029277;28;20381;-88
2022/10/08 11:46:21;;;;;;;;;;;32.80;70.50;;;;;;5030021;28;19910;-87
2022/10/08 11:48:47;;;;;;;;;;;31.90;72.10;;;;;;5032840;28;19932;-87
2022/10/08 11:51:19;;;;;;;;;;;30.70;73.90;;;;;;5032555;28;19984;-90
2022/10/08 11:54:03;;;;;;;;;;;30.50;74.70;;;;;;5030178;28;19909;-90
2022/10/08 11:56:29;;;;;;;;;;;30.60;74.70;;;;;;5033289;28;19909;-87
2022/10/08 11:58:56;;;;;;;;;;;30.70;74.50;;;;;;5034108;28;19905;-89
2022/10/08 12:01:22;;;;;;;;;;;31.00;74.00;;;;;;5037411;28;19913;-86
2022/10/08 12:04:00;;;;;;;;;;;31.10;73.70;;;;;;5035916;28;19909;-88
2022/10/08 12:06:33;;;;;;;;;;;31.20;73.80;;;;;;5036880;28;19952;-85
2022/10/08 12:09:00;;;;;;;;;;;31.10;73.50;;;;;;5019700;28;19901;-86
2022/10/08 12:11:28;;;;;;;;;;;31.50;73.60;;;;;;5036420;28;19948;-86
2022/10/08 12:14:10;;;;;;;;;;;31.40;73.30;;;;;;5033957;28;19992;-86
2022/10/08 12:17:02;;;;;;;;;;;31.20;73.60;;;;;;5036347;28;19905;-86
2022/10/08 12:19:34;;;;;;;;;;;31.40;73.30;;;;;;5034516;28;19912;-85
2022/10/08 12:22:09;;;;;;;;;;;32.10;72.60;;;;;;5037447;28;19902;-86
2022/10/08 12:24:37;;;;;;;;;;;31.80;72.00;;;;;;5037097;28;19913;-88
2022/10/08 12:27:15;;;;;;;;;;;30.90;73.40;;;;;;5032912;28;19916;-88
2022/10/08 12:29:56;;;;;;;;;;;30.40;74.20;;;;;;5036869;28;19901;-85
2022/10/08 12:32:23;;;;;;;;;;;30.00;74.90;;;;;;5037028;28;19921;-88
2022/10/08 12:34:49;;;;;;;;;;;29.40;76.00;;;;;;5037441;28;19917;-86
2022/10/08 12:37:42;;;;;;;;;;;28.60;77.10;;;;;;5032347;28;19914;-88
2022/10/08 12:40:20;;;;;;;;;;;28.00;78.80;;;;;;5028346;28;19913;-89
2022/10/08 12:42:48;;;;;;;;;;;27.30;80.70;;;;;;5029690;28;19976;-88
2022/10/08 12:45:26;;;;;;;;;;;26.80;81.90;;;;;;5029433;28;20412;-87
2022/10/08 12:48:03;;;;;;;;;;;26.30;83.30;;;;;;5029830;28;19917;-87
2022/10/08 12:50:29;;;;;;;;;;;25.90;84.70;;;;;;5031301;28;19952;-89
2022/10/08 12:52:58;;;;;;;;;;;25.80;85.60;;;;;;5028826;28;19916;-87
2022/10/08 12:55:24;;;;;;;;;;;25.60;86.10;;;;;;5033218;28;19909;-87
2022/10/08 12:57:50;;;;;;;;;;;25.40;87.10;;;;;;5017085;28;19977;-89
2022/10/08 13:00:21;;;;;;;;;;;25.60;87.30;;;;;;5031700;28;19909;-87
2022/10/08 13:02:59;;;;;;;;;;;25.50;87.40;;;;;;5028562;28;19941;-86
2022/10/08 13:05:25;;;;;;;;;;;25.10;88.40;;;;;;5026930;28;19920;-88
2022/10/08 13:07:51;;;;;;;;;;;24.80;89.80;;;;;;5008544;28;19913;-85